createdAt,value
2023-04-18T00:00:37.005Z,58.65
2023-04-18T00:01:37.032Z,58.78
2023-04-18T00:02:37.113Z,58.72
2023-04-18T00:03:37.220Z,58.58
2023-04-18T00:04:37.120Z,58.56
2023-04-18T00:05:37.087Z,58.45
2023-04-18T00:06:37.156Z,58.51
2023-04-18T00:07:37.230Z,58.73
2023-04-18T00:08:37.191Z,58.72
2023-04-18T00:09:37.379Z,58.93
2023-04-18T00:10:37.176Z,58.74
2023-04-18T00:11:37.202Z,59.04
2023-04-18T00:12:37.198Z,59.00
2023-04-18T00:13:37.235Z,59.03
2023-04-18T00:14:37.300Z,59.22
2023-04-18T00:15:37.271Z,59.35
2023-04-18T00:16:37.345Z,59.17
2023-04-18T00:17:37.296Z,58.93
2023-04-18T00:18:37.306Z,58.80
2023-04-18T00:19:37.253Z,58.79
2023-04-18T00:20:37.686Z,58.75
2023-04-18T00:21:37.283Z,59.00
2023-04-18T00:22:37.311Z,58.94
2023-04-18T00:23:37.494Z,58.98
2023-04-18T00:24:37.388Z,58.95
2023-04-18T00:25:37.461Z,58.98
2023-04-18T00:26:37.425Z,59.07
2023-04-18T00:27:37.431Z,58.98
2023-04-18T00:28:37.490Z,58.96
2023-04-18T00:29:37.553Z,58.83
2023-04-18T00:30:37.722Z,58.63
2023-04-18T00:31:37.570Z,58.57
2023-04-18T00:32:37.671Z,58.53
2023-04-18T00:33:37.618Z,58.56
2023-04-18T00:34:37.663Z,58.52
2023-04-18T00:35:37.654Z,58.51
2023-04-18T00:36:37.689Z,58.64
2023-04-18T00:37:37.685Z,58.76
2023-04-18T00:38:37.665Z,58.53
2023-04-18T00:39:37.725Z,58.39
2023-04-18T00:40:37.764Z,58.21
2023-04-18T00:41:37.757Z,58.15
2023-04-18T00:42:37.797Z,57.91
2023-04-18T00:43:38.624Z,57.88
2023-04-18T00:44:37.835Z,58.06
2023-04-18T00:45:37.939Z,58.02
2023-04-18T00:46:37.990Z,57.87
2023-04-18T00:47:37.905Z,57.77
2023-04-18T00:48:37.896Z,57.81
2023-04-18T00:49:37.908Z,57.56
2023-04-18T00:50:37.935Z,57.49
2023-04-18T00:51:38.041Z,57.49
2023-04-18T00:52:37.977Z,57.48
2023-04-18T00:53:37.977Z,57.39
2023-04-18T00:54:38.055Z,57.44
2023-04-18T00:55:37.986Z,57.37
2023-04-18T00:56:37.997Z,57.44
2023-04-18T00:57:38.024Z,57.56
2023-04-18T00:58:38.128Z,57.89
2023-04-18T00:59:38.005Z,57.89
2023-04-18T01:00:37.992Z,58.11
2023-04-18T01:01:38.112Z,58.22
2023-04-18T01:02:38.162Z,58.37
2023-04-18T01:03:38.224Z,58.78
2023-04-18T01:04:38.206Z,59.76
2023-04-18T01:05:38.211Z,60.12
2023-04-18T01:06:38.133Z,60.45
2023-04-18T01:07:38.247Z,60.87
2023-04-18T01:08:38.221Z,60.74
2023-04-18T01:09:38.593Z,60.46
2023-04-18T01:10:38.296Z,60.06
2023-04-18T01:11:38.275Z,59.99
2023-04-18T01:12:38.293Z,59.82
2023-04-18T01:13:38.361Z,59.80
2023-04-18T01:14:38.369Z,59.23
2023-04-18T01:15:38.418Z,58.81
2023-04-18T01:16:38.354Z,58.67
2023-04-18T01:17:38.460Z,58.73
2023-04-18T01:18:38.446Z,58.80
2023-04-18T01:19:38.571Z,58.70
2023-04-18T01:20:39.119Z,58.67
2023-04-18T01:21:38.601Z,58.90
2023-04-18T01:22:38.573Z,59.27
2023-04-18T01:23:38.549Z,59.66
2023-04-18T01:24:38.622Z,59.97
2023-04-18T01:25:38.525Z,59.95
2023-04-18T01:26:38.552Z,59.62
2023-04-18T01:27:38.623Z,59.53
2023-04-18T01:28:38.686Z,59.21
2023-04-18T01:29:39.668Z,58.86
2023-04-18T01:30:38.817Z,58.76
2023-04-18T01:31:38.958Z,58.59
2023-04-18T01:32:38.856Z,58.55
2023-04-18T01:33:39.650Z,58.77
2023-04-18T01:34:38.853Z,58.75
2023-04-18T01:35:38.813Z,58.36
2023-04-18T01:36:38.859Z,58.19
2023-04-18T01:37:38.845Z,57.84
2023-04-18T01:38:38.888Z,57.80
2023-04-18T01:39:38.844Z,57.68
2023-04-18T01:40:38.922Z,57.62
2023-04-18T01:41:38.924Z,57.62
2023-04-18T01:42:38.936Z,57.71
2023-04-18T01:43:38.924Z,57.84
2023-04-18T01:44:38.982Z,57.89
2023-04-18T01:45:39.166Z,57.85
2023-04-18T01:46:39.085Z,57.88
2023-04-18T01:47:39.067Z,58.14
2023-04-18T01:48:39.102Z,58.31
2023-04-18T01:49:39.171Z,58.37
2023-04-18T01:50:39.273Z,58.39
2023-04-18T01:51:39.272Z,58.35
2023-04-18T01:52:39.282Z,58.30
2023-04-18T01:53:39.305Z,58.23
2023-04-18T01:54:39.323Z,58.16
2023-04-18T01:55:39.440Z,58.03
2023-04-18T01:56:39.425Z,57.86
2023-04-18T01:57:39.498Z,57.71
2023-04-18T01:58:39.443Z,57.67
2023-04-18T01:59:39.462Z,57.82
2023-04-18T02:00:39.506Z,57.83
2023-04-18T02:01:39.481Z,57.85
2023-04-18T02:02:39.616Z,57.72
2023-04-18T02:03:39.619Z,57.76
2023-04-18T02:04:39.532Z,57.66
2023-04-18T02:05:39.533Z,57.58
2023-04-18T02:06:39.560Z,57.63
2023-04-18T02:07:39.584Z,57.79
2023-04-18T02:08:39.624Z,57.92
2023-04-18T02:09:39.654Z,58.06
2023-04-18T02:10:39.679Z,57.89
2023-04-18T02:11:39.685Z,57.86
2023-04-18T02:12:39.717Z,57.82
2023-04-18T02:13:39.791Z,57.69
2023-04-18T02:14:47.626Z,57.37
2023-04-18T02:15:39.823Z,57.22
2023-04-18T02:16:39.885Z,57.15
2023-04-18T02:17:39.813Z,57.05
2023-04-18T02:18:39.767Z,57.16
2023-04-18T02:19:39.764Z,57.52
2023-04-18T02:20:39.771Z,57.48
2023-04-18T02:21:39.724Z,57.58
2023-04-18T02:22:39.775Z,57.88
2023-04-18T02:23:39.752Z,58.11
2023-04-18T02:24:40.153Z,58.14
2023-04-18T02:25:39.743Z,57.80
2023-04-18T02:26:39.712Z,57.39
2023-04-18T02:27:39.731Z,57.13
2023-04-18T02:28:39.718Z,57.19
2023-04-18T02:29:40.229Z,57.18
2023-04-18T02:30:39.787Z,57.18
2023-04-18T02:31:39.877Z,57.42
2023-04-18T02:32:39.866Z,57.59
2023-04-18T02:33:39.963Z,57.40
2023-04-18T02:34:39.918Z,57.24
2023-04-18T02:35:40.714Z,57.13
2023-04-18T02:36:41.687Z,57.34
2023-04-18T02:37:39.924Z,57.35
2023-04-18T02:38:40.113Z,57.03
2023-04-18T02:39:40.154Z,56.96
2023-04-18T02:40:40.078Z,56.89
2023-04-18T02:41:40.196Z,56.81
2023-04-18T02:42:40.107Z,56.54
2023-04-18T02:43:40.125Z,56.30
2023-04-18T02:44:40.103Z,56.27
2023-04-18T02:45:40.223Z,56.47
2023-04-18T02:46:40.250Z,56.77
2023-04-18T02:47:47.395Z,56.72
2023-04-18T02:48:41.104Z,56.50
2023-04-18T02:49:40.288Z,56.44
2023-04-18T02:50:40.104Z,56.46
2023-04-18T02:51:40.186Z,56.77
2023-04-18T02:52:40.096Z,56.90
2023-04-18T02:53:40.065Z,56.53
2023-04-18T02:54:40.094Z,56.50
2023-04-18T02:55:40.154Z,57.00
2023-04-18T02:56:40.199Z,56.77
2023-04-18T02:57:40.073Z,56.51
2023-04-18T02:58:40.057Z,56.34
2023-04-18T02:59:40.118Z,56.24
2023-04-18T03:00:40.047Z,56.09
2023-04-18T03:01:40.099Z,56.18
2023-04-18T03:02:40.123Z,56.19
2023-04-18T03:03:40.000Z,56.20
2023-04-18T03:04:40.006Z,56.21
2023-04-18T03:05:40.065Z,56.51
2023-04-18T03:06:40.092Z,56.78
2023-04-18T03:07:40.185Z,57.01
2023-04-18T03:08:40.130Z,57.00
2023-04-18T03:09:40.218Z,57.11
2023-04-18T03:10:40.272Z,56.97
2023-04-18T03:11:40.338Z,56.78
2023-04-18T03:12:40.307Z,56.69
2023-04-18T03:13:40.382Z,56.82
2023-04-18T03:14:40.459Z,57.03
2023-04-18T03:15:40.439Z,56.89
2023-04-18T03:16:40.544Z,56.64
2023-04-18T03:17:40.473Z,56.72
2023-04-18T03:18:40.470Z,56.94
2023-04-18T03:19:40.511Z,57.10
2023-04-18T03:20:41.131Z,57.21
2023-04-18T03:21:40.605Z,57.38
2023-04-18T03:22:40.619Z,57.31
2023-04-18T03:23:40.610Z,57.23
2023-04-18T03:24:40.732Z,57.21
2023-04-18T03:25:40.779Z,57.42
2023-04-18T03:26:40.736Z,57.42
2023-04-18T03:27:40.763Z,57.35
2023-04-18T03:28:40.834Z,57.37
2023-04-18T03:29:40.938Z,57.35
2023-04-18T03:30:40.914Z,57.28
2023-04-18T03:31:41.046Z,57.15
2023-04-18T03:32:40.974Z,57.11
2023-04-18T03:33:40.960Z,57.15
2023-04-18T03:34:41.099Z,57.45
2023-04-18T03:35:41.046Z,57.23
2023-04-18T03:36:41.121Z,57.25
2023-04-18T03:37:41.130Z,57.16
2023-04-18T03:38:41.056Z,57.34
2023-04-18T03:39:41.088Z,57.34
2023-04-18T03:40:41.091Z,57.25
2023-04-18T03:41:41.124Z,57.16
2023-04-18T03:42:41.119Z,57.19
2023-04-18T03:43:41.086Z,57.16
2023-04-18T03:44:41.145Z,56.99
2023-04-18T03:45:41.147Z,56.96
2023-04-18T03:46:41.255Z,56.71
2023-04-18T03:47:41.204Z,56.35
2023-04-18T03:48:41.180Z,56.36
2023-04-18T03:49:41.206Z,56.52
2023-04-18T03:50:41.332Z,56.63
2023-04-18T03:51:41.346Z,56.65
2023-04-18T03:52:41.354Z,56.56
2023-04-18T03:53:41.380Z,56.70
2023-04-18T03:54:41.447Z,56.91
2023-04-18T03:55:41.426Z,56.84
2023-04-18T03:56:41.495Z,56.78
2023-04-18T03:57:41.564Z,56.75
2023-04-18T03:58:41.578Z,56.69
2023-04-18T03:59:41.557Z,56.59
2023-04-18T04:00:41.560Z,56.63
2023-04-18T04:01:41.559Z,56.76
2023-04-18T04:02:41.681Z,56.90
2023-04-18T04:03:41.809Z,56.71
2023-04-18T04:04:41.771Z,56.61
2023-04-18T04:05:41.671Z,56.57
2023-04-18T04:06:41.628Z,56.53
2023-04-18T04:07:41.592Z,56.54
2023-04-18T04:08:41.600Z,56.43
2023-04-18T04:09:41.764Z,56.19
2023-04-18T04:10:41.708Z,56.44
2023-04-18T04:11:41.773Z,56.55
2023-04-18T04:12:41.738Z,56.37
2023-04-18T04:13:41.762Z,56.28
2023-04-18T04:14:42.186Z,56.20
2023-04-18T04:15:42.670Z,56.23
2023-04-18T04:16:41.863Z,56.11
2023-04-18T04:17:41.905Z,56.49
2023-04-18T04:18:41.905Z,56.70
2023-04-18T04:19:41.921Z,56.68
2023-04-18T04:20:41.890Z,56.70
2023-04-18T04:21:41.957Z,56.56
2023-04-18T04:22:41.930Z,56.57
2023-04-18T04:23:41.941Z,56.53
2023-04-18T04:24:41.910Z,56.50
2023-04-18T04:25:41.936Z,56.51
2023-04-18T04:26:41.964Z,56.44
2023-04-18T04:27:42.033Z,56.11
2023-04-18T04:28:41.992Z,56.16
2023-04-18T04:29:42.099Z,56.12
2023-04-18T04:30:42.072Z,56.36
2023-04-18T04:31:42.243Z,56.46
2023-04-18T04:32:42.232Z,56.62
2023-04-18T04:33:42.072Z,56.80
2023-04-18T04:34:42.140Z,56.80
2023-04-18T04:35:42.161Z,56.79
2023-04-18T04:36:42.113Z,56.67
2023-04-18T04:37:42.146Z,56.47
2023-04-18T04:38:42.155Z,56.48
2023-04-18T04:39:42.183Z,56.52
2023-04-18T04:40:42.204Z,56.69
2023-04-18T04:41:42.231Z,56.58
2023-04-18T04:42:42.301Z,56.62
2023-04-18T04:43:42.258Z,56.75
2023-04-18T04:44:42.270Z,56.62
2023-04-18T04:45:42.297Z,56.61
2023-04-18T04:46:42.256Z,56.56
2023-04-18T04:47:42.292Z,56.64
2023-04-18T04:48:42.315Z,56.79
2023-04-18T04:49:42.373Z,56.80
2023-04-18T04:50:42.482Z,56.91
2023-04-18T04:51:42.454Z,57.16
2023-04-18T04:52:42.556Z,57.13
2023-04-18T04:53:42.555Z,57.01
2023-04-18T04:54:42.568Z,56.94
2023-04-18T04:55:42.608Z,57.00
2023-04-18T04:56:42.683Z,56.83
2023-04-18T04:57:42.765Z,56.82
2023-04-18T04:58:42.738Z,56.63
2023-04-18T04:59:42.756Z,56.34
2023-04-18T05:00:42.742Z,56.04
2023-04-18T05:01:42.773Z,56.19
2023-04-18T05:02:42.859Z,56.05
2023-04-18T05:03:42.948Z,56.11
2023-04-18T05:04:42.904Z,56.22
2023-04-18T05:05:42.783Z,56.39
2023-04-18T05:06:42.791Z,56.46
2023-04-18T05:07:42.828Z,56.71
2023-04-18T05:08:42.880Z,56.55
2023-04-18T05:09:42.884Z,56.40
2023-04-18T05:10:42.920Z,56.22
2023-04-18T05:11:42.985Z,56.20
2023-04-18T05:12:43.009Z,56.35
2023-04-18T05:13:43.028Z,56.48
2023-04-18T05:14:43.092Z,56.37
2023-04-18T05:15:43.111Z,56.29
2023-04-18T05:16:43.115Z,56.48
2023-04-18T05:17:43.204Z,56.30
2023-04-18T05:18:43.178Z,56.08
2023-04-18T05:19:43.153Z,55.83
2023-04-18T05:20:43.325Z,55.50
2023-04-18T05:21:43.271Z,55.43
2023-04-18T05:22:43.337Z,55.50
2023-04-18T05:23:43.731Z,55.63
2023-04-18T05:24:43.459Z,55.43
2023-04-18T05:25:45.210Z,55.31
2023-04-18T05:26:43.676Z,55.73
2023-04-18T05:27:43.486Z,55.54
2023-04-18T05:28:43.807Z,55.63
2023-04-18T05:29:43.776Z,55.81
2023-04-18T05:30:43.585Z,55.81
2023-04-18T05:31:43.590Z,56.11
2023-04-18T05:32:43.791Z,55.76
2023-04-18T05:33:44.744Z,55.55
2023-04-18T05:34:43.838Z,55.57
2023-04-18T05:35:43.815Z,55.39
2023-04-18T05:36:43.806Z,55.29
2023-04-18T05:37:43.741Z,55.13
2023-04-18T05:38:43.848Z,55.13
2023-04-18T05:39:44.255Z,55.20
2023-04-18T05:40:43.836Z,55.14
2023-04-18T05:41:44.074Z,55.11
2023-04-18T05:42:44.072Z,54.97
2023-04-18T05:43:54.192Z,55.24
2023-04-18T05:44:45.734Z,55.05
2023-04-18T05:45:43.966Z,54.85
2023-04-18T05:46:44.045Z,54.73
2023-04-18T05:47:44.021Z,54.51
2023-04-18T05:48:43.953Z,54.45
2023-04-18T05:49:44.252Z,54.52
2023-04-18T05:50:44.217Z,54.22
2023-04-18T05:51:43.966Z,54.18
2023-04-18T05:52:44.014Z,54.20
2023-04-18T05:53:44.252Z,54.02
2023-04-18T05:54:43.947Z,54.05
2023-04-18T05:55:43.958Z,54.13
2023-04-18T05:56:44.021Z,54.20
2023-04-18T05:57:43.892Z,54.20
2023-04-18T05:58:43.872Z,54.21
2023-04-18T05:59:43.997Z,54.15
2023-04-18T06:00:43.864Z,54.04
2023-04-18T06:01:43.877Z,54.00
2023-04-18T06:02:43.947Z,54.23
2023-04-18T06:03:44.106Z,54.39
2023-04-18T06:04:44.163Z,54.35
2023-04-18T06:05:43.984Z,54.08
2023-04-18T06:06:43.977Z,54.15
2023-04-18T06:07:43.951Z,53.97
2023-04-18T06:08:43.985Z,53.89
2023-04-18T06:09:44.042Z,53.78
2023-04-18T06:10:44.205Z,53.73
2023-04-18T06:11:44.069Z,53.83
2023-04-18T06:12:44.121Z,53.70
2023-04-18T06:13:44.204Z,53.78
2023-04-18T06:14:44.352Z,54.00
2023-04-18T06:15:44.363Z,54.02
2023-04-18T06:16:44.222Z,54.01
2023-04-18T06:17:44.277Z,53.95
2023-04-18T06:18:44.735Z,53.79
2023-04-18T06:19:44.270Z,53.86
2023-04-18T06:20:44.283Z,54.04
2023-04-18T06:21:44.494Z,54.13
2023-04-18T06:22:44.522Z,54.03
2023-04-18T06:23:44.492Z,53.83
2023-04-18T06:24:44.428Z,53.64
2023-04-18T06:25:44.473Z,53.48
2023-04-18T06:26:44.679Z,53.42
2023-04-18T06:27:44.518Z,53.42
2023-04-18T06:28:44.769Z,53.46
2023-04-18T06:29:44.771Z,53.55
2023-04-18T06:30:44.835Z,53.48
2023-04-18T06:31:44.691Z,53.37
2023-04-18T06:32:44.804Z,52.95
2023-04-18T06:33:44.706Z,52.75
2023-04-18T06:34:44.798Z,52.81
2023-04-18T06:35:44.816Z,52.93
2023-04-18T06:36:44.764Z,53.08
2023-04-18T06:37:44.814Z,52.96
2023-04-18T06:38:45.590Z,52.59
2023-04-18T06:39:44.866Z,52.62
2023-04-18T06:40:45.234Z,52.68
2023-04-18T06:41:44.905Z,52.39
2023-04-18T06:42:44.914Z,52.46
2023-04-18T06:43:55.802Z,52.31
2023-04-18T06:44:45.980Z,52.38
2023-04-18T06:45:45.309Z,52.24
2023-04-18T06:46:44.996Z,52.26
2023-04-18T06:47:44.987Z,52.45
2023-04-18T06:48:48.958Z,52.02
2023-04-18T06:49:44.948Z,51.93
2023-04-18T06:50:45.349Z,51.86
2023-04-18T06:51:45.055Z,51.90
2023-04-18T06:52:44.934Z,51.79
2023-04-18T06:53:44.851Z,52.24
2023-04-18T06:54:44.955Z,52.85
2023-04-18T06:55:44.951Z,52.42
2023-04-18T06:56:44.848Z,52.90
2023-04-18T06:57:44.886Z,52.61
2023-04-18T06:58:45.006Z,52.23
2023-04-18T06:59:44.935Z,52.08
2023-04-18T07:00:45.279Z,52.24
2023-04-18T07:01:44.911Z,51.80
2023-04-18T07:02:45.136Z,51.72
2023-04-18T07:03:45.311Z,51.53
2023-04-18T07:04:45.252Z,51.13
2023-04-18T07:05:45.236Z,51.07
2023-04-18T07:06:45.111Z,50.87
2023-04-18T07:07:45.261Z,50.69
2023-04-18T07:08:45.983Z,50.27
2023-04-18T07:09:45.700Z,50.21
2023-04-18T07:10:45.252Z,50.15
2023-04-18T07:11:45.176Z,49.86
2023-04-18T07:12:45.203Z,49.75
2023-04-18T07:13:45.457Z,49.63
2023-04-18T07:14:47.109Z,49.60
2023-04-18T07:15:45.419Z,49.87
2023-04-18T07:16:45.532Z,50.41
2023-04-18T07:17:45.276Z,50.72
2023-04-18T07:18:45.413Z,50.01
2023-04-18T07:19:45.296Z,49.69
2023-04-18T07:20:45.529Z,49.43
2023-04-18T07:21:45.363Z,49.43
2023-04-18T07:22:45.474Z,49.73
2023-04-18T07:23:45.471Z,49.68
2023-04-18T07:24:45.541Z,49.48
2023-04-18T07:25:45.607Z,49.43
2023-04-18T07:26:45.965Z,49.57
2023-04-18T07:27:45.564Z,49.43
2023-04-18T07:28:45.620Z,49.61
2023-04-18T07:29:45.680Z,49.79
2023-04-18T07:30:45.874Z,49.62
2023-04-18T07:31:45.645Z,49.50
2023-04-18T07:32:45.749Z,49.92
2023-04-18T07:33:45.765Z,50.22
2023-04-18T07:34:46.285Z,50.31
2023-04-18T07:35:45.884Z,51.16
2023-04-18T07:36:45.902Z,51.45
2023-04-18T07:37:45.846Z,51.01
2023-04-18T07:38:45.836Z,50.42
2023-04-18T07:39:46.378Z,49.70
2023-04-18T07:40:46.029Z,49.65
2023-04-18T07:41:46.196Z,49.82
2023-04-18T07:42:46.067Z,49.76
2023-04-18T07:43:46.725Z,49.86
2023-04-18T07:44:46.004Z,49.77
2023-04-18T07:45:46.077Z,49.67
2023-04-18T07:46:46.170Z,49.34
2023-04-18T07:47:46.068Z,49.31
2023-04-18T07:48:47.107Z,48.99
2023-04-18T07:49:46.268Z,49.17
2023-04-18T07:50:46.297Z,49.39
2023-04-18T07:51:46.179Z,49.38
2023-04-18T07:52:46.220Z,49.86
2023-04-18T07:53:46.216Z,50.25
2023-04-18T07:54:46.542Z,50.37
2023-04-18T07:55:46.816Z,50.35
2023-04-18T07:56:46.332Z,50.13
2023-04-18T07:57:47.523Z,50.25
2023-04-18T07:58:46.575Z,50.33
2023-04-18T07:59:46.851Z,50.44
2023-04-18T08:00:46.838Z,50.48
2023-04-18T08:01:46.691Z,50.30
2023-04-18T08:02:46.764Z,50.27
2023-04-18T08:03:46.738Z,50.51
2023-04-18T08:04:46.749Z,50.51
2023-04-18T08:05:46.674Z,50.78
2023-04-18T08:06:46.630Z,50.86
2023-04-18T08:07:46.701Z,50.83
2023-04-18T08:08:46.719Z,50.61
2023-04-18T08:09:46.765Z,50.17
2023-04-18T08:10:46.777Z,49.96
2023-04-18T08:11:47.745Z,50.14
2023-04-18T08:12:46.857Z,50.32
2023-04-18T08:13:46.892Z,49.94
2023-04-18T08:14:46.982Z,49.69
2023-04-18T08:15:46.899Z,49.63
2023-04-18T08:16:46.951Z,49.60
2023-04-18T08:17:46.923Z,49.75
2023-04-18T08:18:46.987Z,49.49
2023-04-18T08:19:47.123Z,49.47
2023-04-18T08:20:47.052Z,49.31
2023-04-18T08:21:47.150Z,49.04
2023-04-18T08:23:04.710Z,49.15
2023-04-18T08:23:48.090Z,49.08
2023-04-18T08:25:03.206Z,49.28
2023-04-18T08:25:48.560Z,49.09
2023-04-18T08:26:47.087Z,48.59
2023-04-18T08:27:47.056Z,48.00
2023-04-18T08:28:47.293Z,47.63
2023-04-18T08:29:47.049Z,47.40
2023-04-18T08:30:48.286Z,47.09
2023-04-18T08:31:47.153Z,46.81
2023-04-18T08:32:47.273Z,46.89
2023-04-18T08:33:47.021Z,46.70
2023-04-18T08:34:47.239Z,46.60
2023-04-18T08:35:47.107Z,46.49
2023-04-18T08:36:47.152Z,46.28
2023-04-18T08:37:46.994Z,46.06
2023-04-18T08:38:47.083Z,46.24
2023-04-18T08:39:47.072Z,45.95
2023-04-18T08:40:47.530Z,45.91
2023-04-18T08:41:47.311Z,45.81
2023-04-18T08:42:47.229Z,45.43
2023-04-18T08:43:47.252Z,45.71
2023-04-18T08:44:47.630Z,45.83
2023-04-18T08:45:47.612Z,45.77
2023-04-18T08:46:48.118Z,45.79
2023-04-18T08:47:50.245Z,45.75
2023-04-18T08:48:47.403Z,45.67
2023-04-18T08:49:47.459Z,45.51
2023-04-18T08:50:47.525Z,45.39
2023-04-18T08:51:47.751Z,45.03
2023-04-18T08:52:47.413Z,45.08
2023-04-18T08:53:47.451Z,45.21
2023-04-18T08:54:47.811Z,45.27
2023-04-18T08:55:47.385Z,45.05
2023-04-18T08:56:47.770Z,45.08
2023-04-18T08:57:47.369Z,45.05
2023-04-18T08:58:47.318Z,44.76
2023-04-18T08:59:50.373Z,44.80
2023-04-18T09:00:47.323Z,44.93
2023-04-18T09:01:47.276Z,44.98
2023-04-18T09:02:47.535Z,44.94
2023-04-18T09:03:47.288Z,44.87
2023-04-18T09:04:47.383Z,44.18
2023-04-18T09:05:47.356Z,43.64
2023-04-18T09:06:47.329Z,43.44
2023-04-18T09:07:47.263Z,43.29
2023-04-18T09:08:47.253Z,42.58
2023-04-18T09:09:47.294Z,42.60
2023-04-18T09:10:47.204Z,43.02
2023-04-18T09:11:47.347Z,42.91
2023-04-18T09:12:47.218Z,42.60
2023-04-18T09:13:47.205Z,42.64
2023-04-18T09:14:47.181Z,42.43
2023-04-18T09:15:47.192Z,42.64
2023-04-18T09:16:47.293Z,42.36
2023-04-18T09:17:47.247Z,42.20
2023-04-18T09:18:47.179Z,41.62
2023-04-18T09:19:47.177Z,41.53
2023-04-18T09:20:47.291Z,42.23
2023-04-18T09:21:47.258Z,42.27
2023-04-18T09:22:47.132Z,42.24
2023-04-18T09:23:47.769Z,42.27
2023-04-18T09:24:47.787Z,41.69
2023-04-18T09:25:47.112Z,41.04
2023-04-18T09:26:47.181Z,40.71
2023-04-18T09:27:47.112Z,41.08
2023-04-18T09:28:47.208Z,41.77
2023-04-18T09:29:47.328Z,41.21
2023-04-18T09:30:47.201Z,41.69
2023-04-18T09:31:47.078Z,42.44
2023-04-18T09:32:47.150Z,42.67
2023-04-18T09:33:47.088Z,41.94
2023-04-18T09:34:47.082Z,41.79
2023-04-18T09:35:47.536Z,41.94
2023-04-18T09:36:48.247Z,41.18
2023-04-18T09:37:47.233Z,41.04
2023-04-18T09:38:47.238Z,39.92
2023-04-18T09:39:47.271Z,38.95
2023-04-18T09:40:47.350Z,38.80
2023-04-18T09:41:47.256Z,38.82
2023-04-18T09:42:47.236Z,39.31
2023-04-18T09:43:47.152Z,38.91
2023-04-18T09:44:47.332Z,38.97
2023-04-18T09:45:47.121Z,38.88
2023-04-18T09:46:47.775Z,38.57
2023-04-18T09:47:47.894Z,38.91
2023-04-18T09:48:47.280Z,38.96
2023-04-18T09:49:47.107Z,38.38
2023-04-18T09:50:47.354Z,38.77
2023-04-18T09:51:47.352Z,39.12
2023-04-18T09:52:47.080Z,39.36
2023-04-18T09:53:47.038Z,39.29
2023-04-18T09:54:48.236Z,39.49
2023-04-18T09:55:47.064Z,39.49
2023-04-18T09:56:47.226Z,39.06
2023-04-18T09:57:47.175Z,39.36
2023-04-18T09:58:47.177Z,39.37
2023-04-18T09:59:47.201Z,39.60
2023-04-18T10:00:47.366Z,39.24
2023-04-18T10:01:47.868Z,39.33
2023-04-18T10:02:47.954Z,38.88
2023-04-18T10:03:47.444Z,39.33
2023-04-18T10:04:47.430Z,39.35
2023-04-18T10:05:47.558Z,39.60
2023-04-18T10:06:47.439Z,39.21
2023-04-18T10:07:47.592Z,38.44
2023-04-18T10:08:47.654Z,38.24
2023-04-18T10:09:47.636Z,38.32
2023-04-18T10:10:47.697Z,37.66
2023-04-18T10:11:50.271Z,37.86
2023-04-18T10:12:48.151Z,38.20
2023-04-18T10:13:48.023Z,38.08
2023-04-18T10:14:48.887Z,37.78
2023-04-18T10:15:48.063Z,37.92
2023-04-18T10:16:50.574Z,37.95
2023-04-18T10:18:02.743Z,38.13
2023-04-18T10:18:49.071Z,38.39
2023-04-18T10:19:48.068Z,38.15
2023-04-18T10:20:47.984Z,38.23
2023-04-18T10:21:48.000Z,37.82
2023-04-18T10:22:48.075Z,37.48
2023-04-18T10:23:47.997Z,37.84
2023-04-18T10:24:48.044Z,37.80
2023-04-18T10:25:48.853Z,37.79
2023-04-18T10:26:47.985Z,37.62
2023-04-18T10:27:49.030Z,37.97
2023-04-18T10:28:48.804Z,37.90
2023-04-18T10:29:48.154Z,37.48
2023-04-18T10:30:48.813Z,37.49
2023-04-18T10:31:48.364Z,39.45
2023-04-18T10:32:48.250Z,38.88
2023-04-18T10:34:48.364Z,38.10
2023-04-18T10:35:48.334Z,37.60
2023-04-18T10:36:48.401Z,37.21
2023-04-18T10:37:48.398Z,37.51
2023-04-18T10:38:48.459Z,37.49
2023-04-18T10:39:48.450Z,37.25
2023-04-18T10:40:48.575Z,37.46
2023-04-18T10:41:49.465Z,37.69
2023-04-18T10:42:48.651Z,38.15
2023-04-18T10:43:48.675Z,38.30
2023-04-18T10:44:48.639Z,38.12
2023-04-18T10:45:48.661Z,37.96
2023-04-18T10:46:48.861Z,37.81
2023-04-18T10:47:48.791Z,37.59
2023-04-18T10:48:48.707Z,37.15
2023-04-18T10:49:48.695Z,37.14
2023-04-18T10:50:48.698Z,37.43
2023-04-18T10:51:48.766Z,37.72
2023-04-18T10:52:48.788Z,37.70
2023-04-18T10:53:49.322Z,37.86
2023-04-18T10:54:48.932Z,37.43
2023-04-18T10:55:48.900Z,36.54
2023-04-18T10:56:48.926Z,37.12
2023-04-18T10:57:48.966Z,37.44
2023-04-18T10:58:49.935Z,37.35
2023-04-18T10:59:48.970Z,37.49
2023-04-18T11:00:49.075Z,37.23
2023-04-18T11:01:49.136Z,37.41
2023-04-18T11:02:49.306Z,37.42
2023-04-18T11:03:49.102Z,37.45
2023-04-18T11:04:49.038Z,37.33
2023-04-18T11:05:49.061Z,37.31
2023-04-18T11:06:49.526Z,37.46
2023-04-18T11:07:49.108Z,36.88
2023-04-18T11:08:49.164Z,37.00
2023-04-18T11:09:49.171Z,37.30
2023-04-18T11:10:49.177Z,37.28
2023-04-18T11:11:49.154Z,37.51
2023-04-18T11:12:49.168Z,37.57
2023-04-18T11:13:49.304Z,37.59
2023-04-18T11:14:49.410Z,37.54
2023-04-18T11:15:49.220Z,37.54
2023-04-18T11:16:49.444Z,37.56
2023-04-18T11:17:49.431Z,37.67
2023-04-18T11:18:49.396Z,37.63
2023-04-18T11:19:49.396Z,37.53
2023-04-18T11:20:49.408Z,37.40
2023-04-18T11:21:49.387Z,37.43
2023-04-18T11:22:49.344Z,37.74
2023-04-18T11:23:49.462Z,37.74
2023-04-18T11:24:49.387Z,37.59
2023-04-18T11:25:50.441Z,37.53
2023-04-18T11:26:49.847Z,37.61
2023-04-18T11:27:49.581Z,37.41
2023-04-18T11:28:49.570Z,37.10
2023-04-18T11:29:50.367Z,36.81
2023-04-18T11:30:50.416Z,36.61
2023-04-18T11:31:49.789Z,36.59
2023-04-18T11:32:49.716Z,36.29
2023-04-18T11:33:49.779Z,36.29
2023-04-18T11:34:49.782Z,35.81
2023-04-18T11:35:49.811Z,36.11
2023-04-18T11:36:49.941Z,36.32
2023-04-18T11:37:49.620Z,36.19
2023-04-18T11:38:49.807Z,36.28
2023-04-18T11:39:50.545Z,35.78
2023-04-18T11:40:49.596Z,35.77
2023-04-18T11:41:49.645Z,35.47
2023-04-18T11:42:49.585Z,35.43
2023-04-18T11:43:49.581Z,35.15
2023-04-18T11:44:49.552Z,34.80
2023-04-18T11:45:49.595Z,34.46
2023-04-18T11:46:49.600Z,34.76
2023-04-18T11:47:49.588Z,34.85
2023-04-18T11:48:49.530Z,34.46
2023-04-18T11:49:49.510Z,34.23
2023-04-18T11:50:49.536Z,34.10
2023-04-18T11:51:49.547Z,33.62
2023-04-18T11:52:49.550Z,33.90
2023-04-18T11:53:49.517Z,33.89
2023-04-18T11:54:49.523Z,33.29
2023-04-18T11:55:49.515Z,33.23
2023-04-18T11:56:49.563Z,32.78
2023-04-18T11:57:49.519Z,32.69
2023-04-18T11:58:49.511Z,32.96
2023-04-18T11:59:49.486Z,32.41
2023-04-18T12:00:49.563Z,32.42
2023-04-18T12:01:50.065Z,32.45
2023-04-18T12:02:49.570Z,33.46
2023-04-18T12:03:49.574Z,33.22
2023-04-18T12:04:49.850Z,32.70
2023-04-18T12:05:49.572Z,32.14
2023-04-18T12:06:49.455Z,31.56
2023-04-18T12:07:49.402Z,31.72
2023-04-18T12:08:49.406Z,31.60
2023-04-18T12:09:49.457Z,31.82
2023-04-18T12:10:49.528Z,31.91
2023-04-18T12:11:49.817Z,31.83
2023-04-18T12:12:49.501Z,32.40
2023-04-18T12:13:49.520Z,31.43
2023-04-18T12:14:49.446Z,31.54
2023-04-18T12:15:49.555Z,31.39
2023-04-18T12:16:49.557Z,31.32
2023-04-18T12:17:49.557Z,32.32
2023-04-18T12:18:49.659Z,31.70
2023-04-18T12:19:49.862Z,30.57
2023-04-18T12:20:49.590Z,32.33
2023-04-18T12:21:49.627Z,32.07
2023-04-18T12:22:49.808Z,31.98
2023-04-18T12:23:49.604Z,30.42
2023-04-18T12:24:49.560Z,30.38
2023-04-18T12:25:49.700Z,31.06
2023-04-18T12:26:49.871Z,31.41
2023-04-18T12:27:50.412Z,30.83
2023-04-18T12:28:50.373Z,30.31
2023-04-18T12:29:49.605Z,30.41
2023-04-18T12:30:49.533Z,30.32
2023-04-18T12:31:50.486Z,30.62
2023-04-18T12:32:50.528Z,30.11
2023-04-18T12:33:49.594Z,29.72
2023-04-18T12:34:49.678Z,29.79
2023-04-18T12:35:49.791Z,30.61
2023-04-18T12:36:50.422Z,30.11
2023-04-18T12:37:51.417Z,29.17
2023-04-18T12:38:49.785Z,28.64
2023-04-18T12:39:49.826Z,28.79
2023-04-18T12:40:49.890Z,29.18
2023-04-18T12:41:50.150Z,30.22
2023-04-18T12:42:50.956Z,30.73
2023-04-18T12:43:49.924Z,31.12
2023-04-18T12:44:50.013Z,30.91
2023-04-18T12:45:50.306Z,30.75
2023-04-18T12:46:50.163Z,30.10
2023-04-18T12:47:50.228Z,30.80
2023-04-18T12:48:50.113Z,31.05
2023-04-18T12:49:50.194Z,31.79
2023-04-18T12:50:50.287Z,31.61
2023-04-18T12:51:50.250Z,30.97
2023-04-18T12:52:50.216Z,30.99
2023-04-18T12:53:50.221Z,30.88